createdAt,value
2019-05-09T00:00:33.609Z,0
2019-05-09T00:03:33.380Z,0
2019-05-09T00:06:31.213Z,0
2019-05-09T00:12:30.337Z,0
2019-05-09T00:15:30.112Z,0
2019-05-09T00:18:30.027Z,0
2019-05-09T00:24:30.340Z,0
2019-05-09T00:27:35.946Z,0
2019-05-09T00:32:45.899Z,0
2019-05-09T00:33:34.389Z,0
2019-05-09T00:36:33.445Z,0
2019-05-09T00:39:31.085Z,0
2019-05-09T00:46:28.454Z,0
2019-05-09T00:48:30.271Z,0
2019-05-09T00:51:29.837Z,0
2019-05-09T00:54:29.418Z,0
2019-05-09T00:57:46.589Z,0
2019-05-09T01:00:30.424Z,0
2019-05-09T01:03:36.497Z,0
2019-05-09T01:06:30.870Z,0
2019-05-09T01:09:29.781Z,0
2019-05-09T01:12:31.168Z,0
2019-05-09T01:15:33.266Z,0
2019-05-09T01:18:33.066Z,0
2019-05-09T01:21:30.647Z,0
2019-05-09T01:24:31.095Z,0
2019-05-09T01:27:30.524Z,0
2019-05-09T01:30:33.409Z,0
2019-05-09T01:33:38.003Z,0
2019-05-09T01:37:09.168Z,0
2019-05-09T01:39:30.709Z,0
2019-05-09T01:42:31.128Z,0
2019-05-09T01:45:30.797Z,0
2019-05-09T01:48:30.280Z,0
2019-05-09T01:51:29.828Z,0
2019-05-09T01:54:29.370Z,0
2019-05-09T01:57:29.985Z,0
2019-05-09T02:00:30.368Z,0
2019-05-09T02:06:33.292Z,0
2019-05-09T02:09:34.174Z,0
2019-05-09T02:12:30.110Z,0
2019-05-09T02:15:29.702Z,0
2019-05-09T02:18:30.707Z,0
2019-05-09T02:21:30.537Z,0
2019-05-09T02:27:30.579Z,0
2019-05-09T02:30:31.317Z,0
2019-05-09T02:33:30.779Z,0
2019-05-09T02:36:34.615Z,0
2019-05-09T02:39:34.469Z,0
2019-05-09T02:42:34.959Z,0
2019-05-09T02:45:38.922Z,0
2019-05-09T02:48:33.488Z,0
2019-05-09T02:51:34.266Z,0
2019-05-09T02:54:34.266Z,0
2019-05-09T02:57:34.043Z,0
2019-05-09T03:00:42.112Z,0
2019-05-09T03:03:34.002Z,0
2019-05-09T03:06:30.950Z,0
2019-05-09T03:09:31.229Z,0
2019-05-09T03:12:50.154Z,0
2019-05-09T03:18:33.073Z,1
2019-05-09T03:21:42.227Z,1
2019-05-09T03:24:33.841Z,2
2019-05-09T03:27:29.525Z,3
2019-05-09T03:30:42.281Z,5
2019-05-09T03:33:35.268Z,8
2019-05-09T03:36:30.473Z,11
2019-05-09T03:39:31.061Z,14
2019-05-09T03:42:45.860Z,22
2019-05-09T03:48:39.755Z,45
2019-05-09T03:51:33.814Z,63
2019-05-09T03:54:30.714Z,77
2019-05-09T03:57:37.361Z,109
2019-05-09T04:00:33.676Z,145
2019-05-09T04:03:31.146Z,184
2019-05-09T04:06:30.839Z,275
2019-05-09T04:09:51.627Z,382
2019-05-09T04:15:51.276Z,554
2019-05-09T04:18:33.868Z,594
2019-05-09T04:21:33.629Z,606
2019-05-09T04:24:57.638Z,918
2019-05-09T04:27:37.428Z,878
2019-05-09T04:30:30.923Z,872
2019-05-09T04:33:41.912Z,877
2019-05-09T04:36:48.392Z,972
2019-05-09T04:39:38.612Z,1099
2019-05-09T04:42:44.411Z,1037
2019-05-09T04:45:44.250Z,1308
2019-05-09T04:48:39.972Z,1699
2019-05-09T04:51:30.703Z,1993
2019-05-09T04:54:33.372Z,2388
2019-05-09T04:57:33.247Z,2231
2019-05-09T05:01:07.368Z,2596
2019-05-09T05:03:34.688Z,3318
2019-05-09T05:06:40.075Z,4534
2019-05-09T05:09:30.916Z,15436
2019-05-09T05:12:30.319Z,3558
2019-05-09T05:15:32.218Z,2463
2019-05-09T05:18:37.399Z,3002
2019-05-09T05:21:37.828Z,3867
2019-05-09T05:27:30.992Z,14715
2019-05-09T05:30:30.832Z,17052
2019-05-09T05:33:40.559Z,5336
2019-05-09T05:36:33.940Z,2882
2019-05-09T05:39:29.813Z,2813
2019-05-09T05:42:33.071Z,3674
2019-05-09T05:45:31.360Z,3991
2019-05-09T05:48:34.906Z,12195
2019-05-09T05:51:30.244Z,20309
2019-05-09T05:54:30.811Z,5317
2019-05-09T05:57:30.369Z,4038
2019-05-09T06:00:33.505Z,7678
2019-05-09T06:03:33.176Z,18740
2019-05-09T06:06:37.371Z,6819
2019-05-09T06:09:30.993Z,4943
2019-05-09T06:12:30.534Z,6309
2019-05-09T06:15:33.779Z,3647
2019-05-09T06:18:30.393Z,2498
2019-05-09T06:21:33.052Z,2293
2019-05-09T06:24:33.038Z,2967
2019-05-09T06:27:30.531Z,2631
2019-05-09T06:30:40.929Z,1853
2019-05-09T06:33:33.409Z,4259
2019-05-09T06:36:30.999Z,7660
2019-05-09T06:39:30.944Z,9014
2019-05-09T06:42:33.589Z,7606
2019-05-09T06:46:10.489Z,5280
2019-05-09T06:48:33.478Z,4458
2019-05-09T06:51:38.748Z,4038
2019-05-09T06:54:32.786Z,3884
2019-05-09T06:57:30.703Z,7364
2019-05-09T07:00:40.395Z,8418
2019-05-09T07:03:31.783Z,7180
2019-05-09T07:06:40.465Z,3489
2019-05-09T07:09:51.629Z,2683
2019-05-09T07:12:33.441Z,2503
2019-05-09T07:15:33.287Z,2693
2019-05-09T07:18:30.864Z,3388
2019-05-09T07:22:02.907Z,4239
2019-05-09T07:24:31.073Z,4629
2019-05-09T07:27:31.243Z,4814
2019-05-09T07:31:14.123Z,5041
2019-05-09T07:33:40.653Z,4630
2019-05-09T07:36:31.095Z,4839
2019-05-09T07:39:32.911Z,4746
2019-05-09T07:42:30.821Z,3907
2019-05-09T07:45:30.615Z,5835
2019-05-09T07:48:32.878Z,7348
2019-05-09T07:51:31.252Z,6376
2019-05-09T07:54:40.837Z,5404
2019-05-09T07:57:30.963Z,6701
2019-05-09T08:00:40.982Z,4568
2019-05-09T08:03:30.711Z,4711
2019-05-09T08:06:35.014Z,4712
2019-05-09T08:09:30.718Z,4493
2019-05-09T08:12:34.271Z,5872
2019-05-09T08:15:35.481Z,7510
2019-05-09T08:18:33.095Z,7466
2019-05-09T08:21:29.811Z,7438
2019-05-09T08:24:30.525Z,8001
2019-05-09T08:27:33.170Z,8642
2019-05-09T08:30:40.261Z,8344
2019-05-09T08:33:33.796Z,10903
2019-05-09T08:36:30.608Z,11928
2019-05-09T08:39:38.091Z,4163
2019-05-09T08:42:37.147Z,8360
2019-05-09T08:45:43.909Z,6722
2019-05-09T08:48:30.811Z,5306
2019-05-09T08:52:10.287Z,6598
2019-05-09T08:54:51.082Z,6959
2019-05-09T08:57:31.379Z,8898
2019-05-09T09:00:30.113Z,6835
2019-05-09T09:03:30.995Z,6022
2019-05-09T09:06:30.536Z,7944
2019-05-09T09:09:40.308Z,6432
2019-05-09T09:12:47.770Z,6528
2019-05-09T09:16:14.639Z,8498
2019-05-09T09:18:33.780Z,7935
2019-05-09T09:21:33.953Z,6156
2019-05-09T09:24:30.729Z,5722
2019-05-09T09:27:34.308Z,6303
2019-05-09T09:30:41.274Z,6948
2019-05-09T09:33:33.193Z,5791
2019-05-09T09:36:33.460Z,6032
2019-05-09T09:39:33.782Z,5607
2019-05-09T09:42:39.394Z,5646
2019-05-09T09:47:10.447Z,4183
2019-05-09T09:49:29.635Z,3763
2019-05-09T09:51:42.101Z,3969
2019-05-09T09:55:03.663Z,4403
2019-05-09T09:59:04.531Z,2831
2019-05-09T10:01:09.047Z,3968
2019-05-09T10:04:28.256Z,3762
2019-05-09T10:07:32.199Z,7535
2019-05-09T10:09:54.211Z,7409
2019-05-09T10:13:52.089Z,7336
2019-05-09T10:15:58.693Z,9277
2019-05-09T10:20:38.528Z,9192
2019-05-09T10:22:14.651Z,10828
2019-05-09T10:25:07.980Z,8314
2019-05-09T10:28:13.564Z,11053
2019-05-09T10:31:24.307Z,6626
2019-05-09T10:33:32.456Z,5723
2019-05-09T10:36:38.486Z,5090
2019-05-09T10:39:31.252Z,3334
2019-05-09T10:42:40.558Z,2412
2019-05-09T10:46:20.829Z,1797
2019-05-09T10:48:30.765Z,1572
2019-05-09T10:51:34.080Z,2343
2019-05-09T10:54:30.681Z,5722
2019-05-09T10:57:34.837Z,7234
2019-05-09T11:00:31.329Z,6174
2019-05-09T11:03:33.578Z,6720
2019-05-09T11:06:33.904Z,7415
2019-05-09T11:09:31.629Z,7027
2019-05-09T11:12:33.676Z,7942
2019-05-09T11:15:33.470Z,6990
2019-05-09T11:18:31.669Z,6072
2019-05-09T11:21:34.875Z,6827
2019-05-09T11:24:50.994Z,6238
2019-05-09T11:27:31.751Z,9163
2019-05-09T11:30:33.287Z,8227
2019-05-09T11:33:30.897Z,7668
2019-05-09T11:36:37.666Z,6532
2019-05-09T11:39:43.662Z,7061
2019-05-09T11:42:38.124Z,6888
2019-05-09T11:45:33.436Z,6647
2019-05-09T11:48:31.378Z,6408
2019-05-09T11:51:39.154Z,4649
2019-05-09T11:54:35.183Z,3567
2019-05-09T11:57:33.972Z,5319
2019-05-09T12:00:31.879Z,4367
2019-05-09T12:03:30.562Z,4729
2019-05-09T12:06:31.922Z,4098
2019-05-09T12:09:31.435Z,2756
2019-05-09T12:12:31.295Z,3085
2019-05-09T12:15:31.540Z,2402
2019-05-09T12:18:31.604Z,2129
2019-05-09T12:21:39.638Z,2548
2019-05-09T12:24:32.010Z,2812
2019-05-09T12:27:35.588Z,3767
2019-05-09T12:30:31.208Z,4808
2019-05-09T12:33:35.482Z,3187
2019-05-09T12:36:31.366Z,3638
2019-05-09T12:39:34.300Z,2913
2019-05-09T12:42:39.167Z,2723
2019-05-09T12:45:33.850Z,2628
2019-05-09T12:48:34.348Z,2324
2019-05-09T12:51:30.949Z,1608
2019-05-09T12:54:30.473Z,1270
2019-05-09T12:57:31.405Z,1789
2019-05-09T13:00:31.378Z,2323
2019-05-09T13:03:32.614Z,1982
2019-05-09T13:06:38.041Z,1928
2019-05-09T13:09:34.803Z,1268
2019-05-09T13:12:34.012Z,1584
2019-05-09T13:15:40.882Z,2019
2019-05-09T13:19:14.636Z,2388
2019-05-09T13:21:38.415Z,2273
2019-05-09T13:24:37.736Z,3102
2019-05-09T13:27:29.663Z,3506
2019-05-09T13:30:31.263Z,2925
2019-05-09T13:33:31.093Z,2245
2019-05-09T13:36:31.128Z,2222
2019-05-09T13:39:30.618Z,1668
2019-05-09T13:42:35.370Z,2745
2019-05-09T13:45:31.012Z,3341
2019-05-09T13:49:15.700Z,2556
2019-05-09T13:52:01.234Z,4684
2019-05-09T13:54:34.000Z,5215
2019-05-09T13:57:30.730Z,4142
2019-05-09T14:00:34.090Z,3862
2019-05-09T14:03:38.764Z,3903
2019-05-09T14:06:30.583Z,4952
2019-05-09T14:09:32.209Z,2932
2019-05-09T14:12:33.117Z,3211
2019-05-09T14:15:29.804Z,4069
2019-05-09T14:18:34.514Z,4212
2019-05-09T14:21:32.443Z,4896
2019-05-09T14:24:35.251Z,6478
2019-05-09T14:27:31.605Z,7812
2019-05-09T14:30:31.439Z,9776
2019-05-09T14:33:31.981Z,13169
2019-05-09T14:36:39.193Z,14114
2019-05-09T14:39:30.875Z,14582
2019-05-09T14:42:31.607Z,13772
2019-05-09T14:45:33.809Z,12299
2019-05-09T14:48:31.151Z,9897
2019-05-09T14:51:30.948Z,6605
2019-05-09T14:54:31.490Z,7356
2019-05-09T14:57:33.163Z,5621
2019-05-09T15:00:31.235Z,5188
2019-05-09T15:03:31.025Z,6358
2019-05-09T15:06:30.854Z,9216
2019-05-09T15:09:33.753Z,6675
2019-05-09T15:12:34.184Z,5362
2019-05-09T15:15:35.074Z,4781
2019-05-09T15:18:33.107Z,4278
2019-05-09T15:21:38.328Z,4036
2019-05-09T15:36:31.375Z,2329
2019-05-09T15:40:17.753Z,3977
2019-05-09T15:44:36.657Z,5171
2019-05-09T15:51:50.871Z,4885
2019-05-09T15:51:50.985Z,4885
2019-05-09T15:54:33.315Z,5092
2019-05-09T15:57:42.480Z,5415
2019-05-09T16:00:34.399Z,5688
2019-05-09T16:03:31.092Z,5650
2019-05-09T16:06:35.807Z,5359
2019-05-09T16:09:31.083Z,5181
2019-05-09T16:12:30.632Z,4792
2019-05-09T16:15:33.948Z,4754
2019-05-09T16:18:31.269Z,4496
2019-05-09T16:21:30.789Z,3702
2019-05-09T16:24:30.625Z,3592
2019-05-09T16:27:31.329Z,4012
2019-05-09T16:30:30.858Z,2961
2019-05-09T16:36:38.750Z,1041
2019-05-09T16:39:30.777Z,1182
2019-05-09T16:42:30.273Z,1282
2019-05-09T16:45:31.259Z,1504
2019-05-09T16:48:31.149Z,1322
2019-05-09T16:51:31.095Z,1010
2019-05-09T16:54:32.913Z,1049
2019-05-09T16:57:30.477Z,1242
2019-05-09T17:00:40.522Z,2364
2019-05-09T17:03:33.382Z,3688
2019-05-09T17:06:33.996Z,2768
2019-05-09T17:09:57.880Z,2126
2019-05-09T17:12:30.915Z,2189
2019-05-09T17:15:33.186Z,2431
2019-05-09T17:18:30.973Z,2173
2019-05-09T17:24:30.055Z,2975
2019-05-09T17:27:30.846Z,3715
2019-05-09T17:30:31.151Z,2979
2019-05-09T17:33:31.225Z,3225
2019-05-09T17:36:31.050Z,2333
2019-05-09T17:39:31.421Z,1737
2019-05-09T17:42:31.355Z,1603
2019-05-09T17:45:31.037Z,1481
2019-05-09T17:48:31.195Z,1333
2019-05-09T17:51:41.527Z,1177
2019-05-09T17:54:33.844Z,987
2019-05-09T17:57:30.614Z,789
2019-05-09T18:00:40.371Z,581
2019-05-09T18:03:33.780Z,432
2019-05-09T18:06:31.597Z,352
2019-05-09T18:09:31.462Z,408
2019-05-09T18:12:31.085Z,438
2019-05-09T18:15:30.881Z,548
2019-05-09T18:18:30.898Z,613
2019-05-09T18:21:30.751Z,560
2019-05-09T18:24:33.258Z,398
2019-05-09T18:27:31.691Z,218
2019-05-09T18:30:31.335Z,196
2019-05-09T18:33:40.476Z,257
2019-05-09T18:36:31.778Z,298
2019-05-09T18:39:33.398Z,282
2019-05-09T18:42:33.682Z,249
2019-05-09T18:45:53.055Z,219
2019-05-09T18:49:13.726Z,191
2019-05-09T18:52:13.232Z,160
2019-05-09T18:55:11.066Z,132
2019-05-09T18:57:36.454Z,112
2019-05-09T19:06:39.772Z,50
2019-05-09T19:09:53.365Z,38
2019-05-09T19:17:10.365Z,25
2019-05-09T19:20:17.774Z,8
2019-05-09T19:20:38.738Z,4
2019-05-09T19:24:51.220Z,2
2019-05-09T19:28:07.453Z,1
2019-05-09T19:31:15.453Z,1
2019-05-09T19:34:22.633Z,0
2019-05-09T19:36:42.269Z,0
2019-05-09T19:40:04.984Z,0
2019-05-09T19:43:00.026Z,0
2019-05-09T19:45:46.905Z,0
2019-05-09T19:49:28.417Z,0
2019-05-09T19:54:50.017Z,0
2019-05-09T19:58:42.984Z,0
2019-05-09T20:01:08.817Z,0
2019-05-09T20:03:52.356Z,0
2019-05-09T20:07:04.828Z,0
2019-05-09T20:09:35.434Z,0
2019-05-09T20:12:44.842Z,0
2019-05-09T20:15:35.729Z,0
2019-05-09T20:18:34.934Z,0
2019-05-09T20:21:59.859Z,0
2019-05-09T20:25:08.623Z,0
2019-05-09T20:27:45.612Z,0
2019-05-09T20:31:44.665Z,0
2019-05-09T20:33:32.296Z,0
2019-05-09T20:41:42.630Z,0
2019-05-09T20:42:58.399Z,0
2019-05-09T20:45:42.276Z,0
2019-05-09T20:48:30.973Z,0
2019-05-09T20:51:30.711Z,0
2019-05-09T20:54:36.934Z,0
2019-05-09T20:57:30.422Z,0
2019-05-09T21:00:30.913Z,0
2019-05-09T21:03:30.345Z,0
2019-05-09T21:06:30.976Z,0
2019-05-09T21:09:30.466Z,0
2019-05-09T21:12:30.826Z,0
2019-05-09T21:15:30.275Z,0
2019-05-09T21:18:31.033Z,0
2019-05-09T21:21:30.705Z,0
2019-05-09T21:24:31.146Z,0
2019-05-09T21:30:31.022Z,0
2019-05-09T21:33:30.385Z,0
2019-05-09T21:36:30.866Z,0
2019-05-09T21:39:30.255Z,0
2019-05-09T21:42:30.654Z,0
2019-05-09T21:45:30.967Z,0
2019-05-09T21:48:30.412Z,0
2019-05-09T21:51:30.796Z,0
2019-05-09T21:54:30.412Z,0
2019-05-09T21:57:30.804Z,0
2019-05-09T22:00:39.539Z,0
2019-05-09T22:03:31.210Z,0
2019-05-09T22:06:30.552Z,0
2019-05-09T22:09:30.873Z,0
2019-05-09T22:12:30.201Z,0
2019-05-09T22:15:30.673Z,0
2019-05-09T22:18:30.999Z,0
2019-05-09T22:21:30.389Z,0
2019-05-09T22:24:30.671Z,0
2019-05-09T22:27:31.034Z,0
2019-05-09T22:30:30.846Z,0
2019-05-09T22:33:30.283Z,0
2019-05-09T22:36:30.611Z,0
2019-05-09T22:39:31.029Z,0
2019-05-09T22:42:30.342Z,0
2019-05-09T22:45:30.871Z,0
2019-05-09T22:48:30.238Z,0
2019-05-09T22:51:30.505Z,0
2019-05-09T22:54:30.742Z,0
2019-05-09T22:57:31.022Z,0
2019-05-09T23:00:30.539Z,0
2019-05-09T23:03:31.007Z,0
2019-05-09T23:06:30.255Z,0
2019-05-09T23:09:30.513Z,0
2019-05-09T23:12:30.777Z,0
2019-05-09T23:15:31.239Z,0
2019-05-09T23:18:30.697Z,0
2019-05-09T23:21:32.840Z,0
2019-05-09T23:24:47.221Z,0
2019-05-09T23:27:30.781Z,0
2019-05-09T23:30:31.174Z,0
2019-05-09T23:33:31.605Z,0
2019-05-09T23:36:30.803Z,0
2019-05-09T23:39:32.376Z,0
2019-05-09T23:42:30.731Z,0
2019-05-09T23:45:30.936Z,0
2019-05-09T23:48:35.464Z,0
2019-05-09T23:51:49.568Z,0
2019-05-09T23:56:39.980Z,0
2019-05-09T23:59:39.252Z,0
